createdAt,value
2023-05-05T00:02:21.940Z,56.06
2023-05-05T00:04:48.844Z,56.77
2023-05-05T00:07:15.410Z,57.71
2023-05-05T00:09:42.903Z,58.06
2023-05-05T00:12:09.504Z,58.56
2023-05-05T00:14:36.060Z,59.10
2023-05-05T00:17:04.200Z,58.89
2023-05-05T00:19:31.233Z,59.35
2023-05-05T00:21:57.770Z,59.85
2023-05-05T00:24:24.294Z,60.10
2023-05-05T00:26:51.184Z,59.76
2023-05-05T00:29:17.822Z,60.02
2023-05-05T00:31:44.324Z,62.50
2023-05-05T00:34:11.094Z,64.40
2023-05-05T00:36:38.684Z,63.35
2023-05-05T00:39:05.629Z,61.30
2023-05-05T00:41:32.222Z,57.65
2023-05-05T00:43:58.756Z,55.97
2023-05-05T00:46:30.729Z,55.90
2023-05-05T00:48:57.972Z,55.93
2023-05-05T00:51:26.314Z,56.98
2023-05-05T00:53:53.309Z,58.25
2023-05-05T00:56:27.373Z,58.53
2023-05-05T00:58:54.195Z,59.15
2023-05-05T01:01:20.725Z,59.60
2023-05-05T01:03:47.402Z,60.61
2023-05-05T01:07:03.988Z,60.10
2023-05-05T01:09:42.025Z,60.23
2023-05-05T01:12:21.144Z,60.29
2023-05-05T01:14:58.689Z,60.50
2023-05-05T01:17:34.951Z,60.91
2023-05-05T01:20:13.921Z,60.66
2023-05-05T01:22:47.639Z,63.77
2023-05-05T01:25:45.402Z,64.72
2023-05-05T01:28:36.920Z,62.15
2023-05-05T01:31:23.522Z,56.55
2023-05-05T01:33:57.268Z,55.64
2023-05-05T01:36:36.175Z,56.68
2023-05-05T01:39:04.463Z,57.31
2023-05-05T01:41:43.251Z,58.30
2023-05-05T01:44:11.944Z,59.07
2023-05-05T01:46:38.450Z,60.57
2023-05-05T01:49:09.934Z,64.47
2023-05-05T01:51:38.062Z,66.22
2023-05-05T01:54:09.947Z,64.72
2023-05-05T01:56:40.034Z,63.36
2023-05-05T01:59:08.808Z,61.20
2023-05-05T02:01:41.629Z,58.25
2023-05-05T02:04:11.914Z,56.78
2023-05-05T02:06:40.961Z,57.75
2023-05-05T02:09:11.790Z,59.02
2023-05-05T02:11:39.533Z,60.17
2023-05-05T02:14:07.965Z,62.79
2023-05-05T02:16:58.393Z,65.14
2023-05-05T02:19:30.955Z,64.59
2023-05-05T02:21:58.147Z,62.90
2023-05-05T02:24:26.489Z,61.40
2023-05-05T02:26:54.811Z,59.06
2023-05-05T02:29:31.267Z,57.77
2023-05-05T02:32:02.630Z,58.73
2023-05-05T02:34:34.401Z,59.39
2023-05-05T02:37:04.945Z,60.46
2023-05-05T02:39:47.980Z,63.67
2023-05-05T02:42:21.759Z,65.17
2023-05-05T02:44:51.755Z,64.10
2023-05-05T02:47:20.850Z,63.13
2023-05-05T02:49:48.110Z,62.54
2023-05-05T02:52:14.761Z,61.51
2023-05-05T02:54:42.138Z,61.00
2023-05-05T02:57:18.621Z,60.50
2023-05-05T03:00:02.540Z,58.93
2023-05-05T03:02:44.719Z,58.49
2023-05-05T03:05:23.572Z,59.74
2023-05-05T03:08:04.019Z,60.23
2023-05-05T03:10:36.416Z,63.47
2023-05-05T03:13:06.945Z,64.85
2023-05-05T03:15:48.373Z,63.67
2023-05-05T03:18:18.209Z,62.49
2023-05-05T03:20:48.673Z,60.95
2023-05-05T03:23:20.708Z,58.56
2023-05-05T03:25:49.024Z,57.50
2023-05-05T03:28:27.178Z,57.93
2023-05-05T03:30:54.789Z,58.69
2023-05-05T03:33:25.853Z,59.82
2023-05-05T03:35:52.410Z,60.66
2023-05-05T03:38:18.928Z,63.28
2023-05-05T03:40:45.595Z,64.36
2023-05-05T03:43:14.825Z,62.77
2023-05-05T03:45:41.548Z,60.95
2023-05-05T03:48:09.708Z,57.95
2023-05-05T03:50:37.860Z,56.87
2023-05-05T03:53:04.480Z,57.54
2023-05-05T03:55:31.058Z,58.33
2023-05-05T03:57:57.569Z,59.20
2023-05-05T04:00:24.072Z,59.77
2023-05-05T04:02:50.796Z,60.59
2023-05-05T04:05:19.782Z,63.15
2023-05-05T04:07:46.396Z,64.31
2023-05-05T04:10:12.997Z,62.79
2023-05-05T04:12:39.625Z,60.34
2023-05-05T04:15:06.883Z,57.16
2023-05-05T04:17:34.093Z,56.85
2023-05-05T04:20:01.294Z,57.65
2023-05-05T04:22:29.999Z,58.42
2023-05-05T04:24:57.004Z,59.26
2023-05-05T04:27:26.174Z,59.74
2023-05-05T04:29:53.543Z,59.77
2023-05-05T04:32:20.169Z,60.94
2023-05-05T04:34:48.367Z,61.04
2023-05-05T04:37:15.991Z,60.81
2023-05-05T04:39:42.942Z,60.24
2023-05-05T04:42:10.286Z,60.03
2023-05-05T04:44:36.877Z,59.99
2023-05-05T04:47:04.257Z,59.74
2023-05-05T04:49:32.022Z,59.61
2023-05-05T04:51:59.214Z,59.60
2023-05-05T04:54:25.974Z,59.19
2023-05-05T04:56:52.620Z,58.58
2023-05-05T04:59:19.209Z,57.52
2023-05-05T05:01:46.486Z,57.69
2023-05-05T05:04:13.829Z,56.89
2023-05-05T05:06:40.427Z,55.56
2023-05-05T05:09:07.062Z,54.91
2023-05-05T05:11:33.638Z,54.37
2023-05-05T05:14:03.759Z,54.74
2023-05-05T05:16:30.514Z,54.01
2023-05-05T05:18:57.121Z,53.52
2023-05-05T05:21:23.789Z,52.07
2023-05-05T05:23:50.915Z,51.00
2023-05-05T05:26:18.242Z,51.05
2023-05-05T05:28:44.918Z,49.75
2023-05-05T05:31:12.004Z,48.88
2023-05-05T05:33:45.658Z,48.71
2023-05-05T05:36:12.845Z,48.36
2023-05-05T05:38:39.500Z,48.52
2023-05-05T05:41:07.566Z,46.88
2023-05-05T05:43:34.705Z,46.64
2023-05-05T05:46:03.123Z,45.72
2023-05-05T05:48:29.950Z,44.93
2023-05-05T05:50:57.150Z,45.13
2023-05-05T05:53:24.463Z,45.02
2023-05-05T05:55:52.301Z,44.34
2023-05-05T05:58:19.543Z,43.63
2023-05-05T06:00:46.687Z,42.68
2023-05-05T06:03:13.547Z,42.70
2023-05-05T06:05:41.841Z,41.26
2023-05-05T06:08:08.628Z,39.45
2023-05-05T06:10:39.883Z,39.16
2023-05-05T06:13:09.988Z,38.73
2023-05-05T06:15:39.024Z,37.87
2023-05-05T06:18:05.808Z,37.54
2023-05-05T06:20:32.528Z,37.07
2023-05-05T06:22:59.163Z,37.13
2023-05-05T06:25:26.325Z,37.88
2023-05-05T06:27:52.975Z,36.48
2023-05-05T06:30:19.749Z,37.45
2023-05-05T06:32:46.973Z,36.67
2023-05-05T06:35:13.528Z,35.25
2023-05-05T06:37:40.106Z,35.91
2023-05-05T06:40:08.014Z,36.48
2023-05-05T06:42:35.970Z,35.27
2023-05-05T06:45:04.082Z,34.43
2023-05-05T06:47:30.860Z,32.76
2023-05-05T06:49:57.653Z,31.24
2023-05-05T06:52:24.344Z,28.82
2023-05-05T06:54:50.895Z,28.10
2023-05-05T06:57:17.534Z,25.96
2023-05-05T06:59:44.097Z,24.51
2023-05-05T07:02:10.650Z,24.35
2023-05-05T07:04:37.194Z,23.36
2023-05-05T07:07:03.876Z,22.74
2023-05-05T07:09:30.450Z,23.14
2023-05-05T07:11:57.137Z,22.08
2023-05-05T07:14:24.474Z,22.63
2023-05-05T07:16:51.682Z,23.63
2023-05-05T07:19:18.528Z,23.74
2023-05-05T07:21:45.158Z,24.08
2023-05-05T07:24:11.658Z,23.91
2023-05-05T07:26:38.337Z,24.33
2023-05-05T07:29:07.173Z,23.80
2023-05-05T07:31:33.921Z,22.68
2023-05-05T07:34:00.519Z,21.09
2023-05-05T07:36:27.966Z,20.62
2023-05-05T07:38:55.027Z,20.00
2023-05-05T07:41:21.661Z,19.50
2023-05-05T07:43:48.235Z,19.40
2023-05-05T07:46:14.973Z,19.46
2023-05-05T07:48:42.075Z,18.66
2023-05-05T07:51:09.476Z,17.91
2023-05-05T07:53:36.356Z,19.26
2023-05-05T07:56:03.612Z,19.08
2023-05-05T07:58:30.176Z,18.01
2023-05-05T08:00:56.830Z,17.09
2023-05-05T08:03:24.781Z,16.63
2023-05-05T08:05:54.505Z,16.67
2023-05-05T08:08:24.723Z,15.86
2023-05-05T08:10:53.076Z,15.18
2023-05-05T08:13:20.104Z,15.03
2023-05-05T08:15:46.849Z,14.80
2023-05-05T08:18:14.830Z,14.74
2023-05-05T08:20:41.734Z,14.33
2023-05-05T08:23:08.450Z,13.79
2023-05-05T08:25:35.164Z,14.01
2023-05-05T08:28:01.776Z,14.63
2023-05-05T08:30:28.722Z,14.65
2023-05-05T08:32:55.399Z,14.37
2023-05-05T08:35:22.312Z,14.61
2023-05-05T08:37:50.656Z,14.51
2023-05-05T08:40:17.247Z,14.39
2023-05-05T08:42:46.419Z,14.88
2023-05-05T08:45:13.135Z,15.31
2023-05-05T08:47:40.267Z,16.33
2023-05-05T08:50:10.400Z,17.56
2023-05-05T08:52:52.521Z,18.62
2023-05-05T08:55:28.106Z,19.44
2023-05-05T08:57:57.211Z,20.38
2023-05-05T09:00:27.017Z,20.49
2023-05-05T09:02:57.274Z,20.81
2023-05-05T09:05:26.811Z,21.12
2023-05-05T09:07:53.456Z,21.52
2023-05-05T09:10:20.153Z,21.99
2023-05-05T09:12:46.901Z,21.55
2023-05-05T09:15:15.104Z,21.18
2023-05-05T09:17:42.308Z,20.94
2023-05-05T09:20:14.356Z,20.88
2023-05-05T09:22:42.942Z,20.61
2023-05-05T09:25:12.026Z,22.10
2023-05-05T09:27:48.996Z,22.77
2023-05-05T09:30:18.517Z,22.00
2023-05-05T09:32:56.197Z,20.47
2023-05-05T09:35:23.426Z,19.34
2023-05-05T09:37:51.571Z,18.32
2023-05-05T09:40:19.991Z,17.79
2023-05-05T09:42:48.703Z,18.64
2023-05-05T09:45:20.838Z,18.97
2023-05-05T09:47:48.441Z,19.97
2023-05-05T09:50:18.456Z,20.37
2023-05-05T09:53:00.658Z,20.76
2023-05-05T09:55:27.513Z,20.38
2023-05-05T09:57:54.111Z,18.92
2023-05-05T10:00:21.166Z,17.75
2023-05-05T10:02:47.776Z,17.43
2023-05-05T10:05:17.484Z,16.30
2023-05-05T10:07:46.926Z,15.21
2023-05-05T10:10:16.766Z,14.84
2023-05-05T10:12:47.177Z,14.88
2023-05-05T10:15:15.908Z,14.31
2023-05-05T10:18:05.230Z,13.95
2023-05-05T10:20:33.395Z,14.36
2023-05-05T10:23:04.676Z,14.79
2023-05-05T10:25:39.201Z,15.85
2023-05-05T10:28:08.100Z,17.08
2023-05-05T10:30:43.171Z,18.61
2023-05-05T10:33:31.143Z,19.87
2023-05-05T10:36:02.487Z,21.74
2023-05-05T10:38:33.901Z,22.62
2023-05-05T10:41:02.178Z,23.99
2023-05-05T10:43:30.716Z,24.79
2023-05-05T10:45:58.658Z,25.22
2023-05-05T10:48:34.546Z,26.19
2023-05-05T10:51:39.564Z,26.29
2023-05-05T10:54:18.029Z,24.04
2023-05-05T10:56:46.700Z,23.09
2023-05-05T10:59:40.702Z,21.80
2023-05-05T11:02:21.168Z,22.16
2023-05-05T11:05:16.835Z,22.24
2023-05-05T11:07:46.056Z,21.78
2023-05-05T11:10:15.286Z,20.85
2023-05-05T11:12:54.114Z,20.90
2023-05-05T11:15:30.313Z,20.32
2023-05-05T11:18:05.742Z,19.85
2023-05-05T11:20:39.955Z,19.78
2023-05-05T11:23:06.800Z,19.37
2023-05-05T11:25:40.937Z,18.41
2023-05-05T11:28:13.568Z,18.22
2023-05-05T11:30:59.184Z,18.20
2023-05-05T11:33:31.579Z,18.06
2023-05-05T11:36:09.395Z,18.65
2023-05-05T11:38:38.961Z,18.43
2023-05-05T11:41:12.736Z,17.80
2023-05-05T11:43:41.821Z,17.36
2023-05-05T11:46:17.002Z,17.92
2023-05-05T11:48:48.095Z,18.25
2023-05-05T11:51:16.602Z,18.85
2023-05-05T11:53:44.732Z,18.72
2023-05-05T11:56:14.147Z,18.53
2023-05-05T11:58:41.883Z,19.35
2023-05-05T12:01:08.928Z,21.04
2023-05-05T12:03:39.496Z,22.78
2023-05-05T12:06:07.781Z,23.66
2023-05-05T12:08:38.296Z,23.64
2023-05-05T12:11:07.772Z,23.31
2023-05-05T12:13:35.161Z,23.52
2023-05-05T12:16:12.960Z,23.44
2023-05-05T12:18:40.313Z,23.13
2023-05-05T12:21:20.544Z,23.31
2023-05-05T12:23:47.285Z,23.25
2023-05-05T12:26:31.702Z,23.79
2023-05-05T12:28:59.563Z,23.34
2023-05-05T12:31:36.808Z,23.54
2023-05-05T12:34:08.458Z,23.30
2023-05-05T12:36:38.952Z,23.33
2023-05-05T12:39:05.607Z,23.06
2023-05-05T12:41:33.004Z,23.51
2023-05-05T12:44:01.538Z,24.20
2023-05-05T12:46:32.175Z,25.21
2023-05-05T12:49:00.306Z,25.80
2023-05-05T12:51:28.226Z,26.40
2023-05-05T12:54:09.875Z,26.78
2023-05-05T12:56:38.556Z,27.26
2023-05-05T12:59:08.018Z,27.26
2023-05-05T13:01:50.802Z,26.51
2023-05-05T13:04:18.713Z,26.41
2023-05-05T13:06:47.429Z,26.33
2023-05-05T13:09:25.177Z,26.27
2023-05-05T13:11:52.998Z,27.05
2023-05-05T13:14:19.840Z,27.58
2023-05-05T13:16:46.849Z,28.11
2023-05-05T13:19:13.458Z,29.08
2023-05-05T13:21:42.347Z,29.03
2023-05-05T13:24:25.375Z,28.60
2023-05-05T13:26:56.590Z,28.74
2023-05-05T13:29:25.584Z,28.92
2023-05-05T13:31:55.479Z,29.95
2023-05-05T13:34:22.257Z,30.73
2023-05-05T13:36:48.893Z,31.06
2023-05-05T13:39:15.760Z,32.24
2023-05-05T13:41:44.838Z,33.69
2023-05-05T13:44:12.416Z,34.04
2023-05-05T13:46:39.025Z,34.83
2023-05-05T13:49:05.688Z,34.66
2023-05-05T13:51:34.639Z,34.40
2023-05-05T13:54:01.518Z,34.10
2023-05-05T13:56:28.430Z,34.19
2023-05-05T13:58:55.061Z,34.83
2023-05-05T14:01:21.730Z,35.31
2023-05-05T14:03:48.319Z,36.11
2023-05-05T14:06:14.928Z,36.47
2023-05-05T14:08:41.555Z,36.74
2023-05-05T14:11:08.190Z,36.40
2023-05-05T14:13:34.776Z,36.87
2023-05-05T14:16:01.529Z,36.59
2023-05-05T14:18:28.459Z,35.99
2023-05-05T14:20:55.115Z,36.62
2023-05-05T14:23:21.803Z,36.74
2023-05-05T14:25:48.527Z,37.10
2023-05-05T14:28:15.163Z,36.56
2023-05-05T14:30:41.969Z,36.93
2023-05-05T14:33:08.638Z,37.39
2023-05-05T14:35:35.344Z,37.25
2023-05-05T14:38:01.949Z,37.01
2023-05-05T14:40:30.318Z,37.23
2023-05-05T14:42:57.906Z,37.31
2023-05-05T14:45:24.567Z,37.77
2023-05-05T14:47:51.223Z,37.93
2023-05-05T14:50:17.810Z,38.51
2023-05-05T14:52:44.576Z,38.19
2023-05-05T14:55:11.966Z,38.52
2023-05-05T14:57:38.788Z,38.97
2023-05-05T15:00:09.451Z,39.45
2023-05-05T15:02:36.118Z,39.68
2023-05-05T15:05:02.804Z,39.82
2023-05-05T15:07:29.904Z,39.32
2023-05-05T15:09:56.494Z,39.23
2023-05-05T15:12:23.239Z,39.62
2023-05-05T15:14:49.805Z,39.87
2023-05-05T15:17:16.489Z,40.35
2023-05-05T15:19:43.104Z,40.46
2023-05-05T15:22:09.817Z,40.67
2023-05-05T15:24:37.255Z,40.53
2023-05-05T15:27:04.214Z,40.95
2023-05-05T15:29:31.200Z,41.21
2023-05-05T15:31:59.168Z,41.64
2023-05-05T15:34:26.250Z,41.91
2023-05-05T15:36:52.815Z,41.94
2023-05-05T15:39:19.487Z,42.52
2023-05-05T15:41:46.091Z,42.94
2023-05-05T15:44:12.804Z,43.05
2023-05-05T15:46:39.734Z,43.16
2023-05-05T15:49:06.686Z,43.19
2023-05-05T15:51:33.270Z,43.42
2023-05-05T15:54:00.321Z,42.97
2023-05-05T15:56:29.850Z,42.83
2023-05-05T15:58:56.960Z,41.51
2023-05-05T16:01:23.662Z,41.32
2023-05-05T16:03:50.446Z,41.05
2023-05-05T16:06:17.260Z,40.69
2023-05-05T16:08:43.906Z,40.53
2023-05-05T16:11:10.806Z,40.75
2023-05-05T16:13:39.247Z,40.81
2023-05-05T16:16:06.860Z,41.43
2023-05-05T16:18:33.801Z,41.26
2023-05-05T16:21:00.737Z,41.38
2023-05-05T16:23:27.416Z,41.43
2023-05-05T16:25:54.030Z,41.86
2023-05-05T16:28:20.762Z,41.64
2023-05-05T16:30:47.374Z,42.35
2023-05-05T16:33:14.158Z,42.62
2023-05-05T16:35:44.139Z,43.22
2023-05-05T16:38:10.680Z,44.04
2023-05-05T16:40:37.907Z,44.39
2023-05-05T16:43:04.903Z,45.13
2023-05-05T16:45:31.543Z,45.47
2023-05-05T16:47:58.224Z,45.62
2023-05-05T16:50:24.934Z,45.48
2023-05-05T16:52:51.898Z,45.78
2023-05-05T16:55:19.437Z,46.30
2023-05-05T16:57:47.259Z,46.79
2023-05-05T17:00:14.593Z,47.16
2023-05-05T17:02:41.443Z,47.42
2023-05-05T17:05:08.939Z,47.57
2023-05-05T17:07:35.912Z,48.68
2023-05-05T17:10:02.584Z,49.05
2023-05-05T17:12:29.216Z,49.85
2023-05-05T17:14:55.980Z,50.08
2023-05-05T17:17:22.860Z,50.68
2023-05-05T17:19:49.494Z,51.14
2023-05-05T17:22:16.559Z,52.11
2023-05-05T17:24:43.258Z,52.08
2023-05-05T17:27:09.951Z,52.53
2023-05-05T17:29:41.312Z,53.23
2023-05-05T17:32:09.266Z,53.65
2023-05-05T17:34:36.488Z,53.54
2023-05-05T17:37:03.432Z,53.75
2023-05-05T17:39:30.912Z,54.22
2023-05-05T17:41:57.781Z,54.62
2023-05-05T17:44:24.536Z,54.46
2023-05-05T17:46:51.369Z,54.62
2023-05-05T17:49:18.103Z,55.21
2023-05-05T17:51:44.740Z,55.31
2023-05-05T17:54:11.689Z,55.78
2023-05-05T17:56:38.434Z,55.81
2023-05-05T17:59:05.116Z,56.19
2023-05-05T18:01:31.821Z,56.21
2023-05-05T18:03:58.615Z,56.97
2023-05-05T18:06:25.698Z,57.03
2023-05-05T18:08:52.818Z,57.77
2023-05-05T18:11:21.260Z,57.57
2023-05-05T18:13:47.903Z,57.60
2023-05-05T18:16:14.538Z,57.74
2023-05-05T18:18:41.710Z,58.68
2023-05-05T18:21:12.180Z,59.04
2023-05-05T18:23:40.170Z,59.30
2023-05-05T18:26:07.630Z,59.99
2023-05-05T18:28:34.233Z,60.00
2023-05-05T18:31:01.043Z,60.52
2023-05-05T18:33:28.001Z,61.12
2023-05-05T18:35:54.705Z,61.17
2023-05-05T18:38:21.613Z,63.53
2023-05-05T18:40:48.324Z,63.49
2023-05-05T18:43:15.020Z,61.15
2023-05-05T18:45:41.948Z,57.56
2023-05-05T18:48:08.833Z,56.22
2023-05-05T18:50:36.769Z,56.83
2023-05-05T18:53:03.831Z,57.76
2023-05-05T18:55:30.406Z,58.73
2023-05-05T18:57:56.990Z,59.52
2023-05-05T19:00:24.564Z,59.21
2023-05-05T19:02:51.546Z,59.54
2023-05-05T19:05:18.515Z,59.88
2023-05-05T19:07:45.755Z,60.02
2023-05-05T19:10:12.586Z,61.10
2023-05-05T19:12:39.262Z,63.84
2023-05-05T19:15:07.014Z,64.91
2023-05-05T19:17:34.141Z,63.01
2023-05-05T19:20:01.222Z,60.97
2023-05-05T19:22:30.081Z,58.34
2023-05-05T19:24:56.821Z,57.18
2023-05-05T19:27:23.607Z,57.64
2023-05-05T19:29:52.608Z,58.72
2023-05-05T19:32:23.198Z,59.29
2023-05-05T19:34:54.423Z,60.41
2023-05-05T19:37:21.720Z,60.90
2023-05-05T19:39:49.621Z,63.37
2023-05-05T19:42:17.456Z,64.22
2023-05-05T19:44:44.151Z,61.90
2023-05-05T19:47:11.320Z,60.01
2023-05-05T19:49:38.116Z,57.57
2023-05-05T19:52:05.085Z,57.21
2023-05-05T19:54:31.644Z,58.24
2023-05-05T19:56:59.509Z,59.09
2023-05-05T19:59:26.211Z,60.45
2023-05-05T20:01:53.023Z,60.63
2023-05-05T20:04:19.751Z,63.16
2023-05-05T20:06:46.582Z,63.25
2023-05-05T20:09:13.186Z,61.41
2023-05-05T20:11:39.872Z,58.97
2023-05-05T20:14:06.603Z,57.80
2023-05-05T20:16:33.626Z,59.09
2023-05-05T20:19:00.463Z,59.90
2023-05-05T20:21:27.171Z,60.45
2023-05-05T20:23:56.653Z,63.51
2023-05-05T20:26:24.529Z,63.75
2023-05-05T20:28:51.485Z,62.10
2023-05-05T20:31:18.473Z,60.15
2023-05-05T20:33:45.356Z,57.90
2023-05-05T20:36:12.066Z,56.93
2023-05-05T20:38:38.716Z,58.03
2023-05-05T20:41:06.069Z,59.23
2023-05-05T20:43:32.724Z,60.55
2023-05-05T20:45:59.646Z,61.16
2023-05-05T20:48:26.358Z,63.96
2023-05-05T20:50:53.084Z,64.49
2023-05-05T20:53:21.022Z,62.78
2023-05-05T20:55:47.780Z,60.86
2023-05-05T20:58:14.491Z,58.71
2023-05-05T21:00:41.338Z,58.08
2023-05-05T21:03:08.075Z,59.08
2023-05-05T21:05:36.142Z,60.14
2023-05-05T21:08:02.841Z,61.19
2023-05-05T21:10:29.624Z,63.07
2023-05-05T21:12:56.368Z,64.17
2023-05-05T21:15:23.330Z,62.15
2023-05-05T21:17:50.204Z,60.45
2023-05-05T21:20:18.825Z,58.53
2023-05-05T21:22:46.284Z,57.64
2023-05-05T21:25:16.265Z,59.06
2023-05-05T21:27:44.152Z,60.27
2023-05-05T21:30:11.588Z,59.93
2023-05-05T21:32:39.536Z,62.66
2023-05-05T21:35:07.788Z,63.92
2023-05-05T21:37:36.863Z,62.19
2023-05-05T21:40:03.853Z,60.73
2023-05-05T21:42:30.994Z,58.50
2023-05-05T21:44:57.931Z,57.63
2023-05-05T21:47:24.608Z,58.73
2023-05-05T21:49:51.522Z,59.61
2023-05-05T21:52:18.307Z,60.35
2023-05-05T21:54:45.228Z,63.50
2023-05-05T21:57:14.123Z,64.41
2023-05-05T21:59:41.396Z,62.27
2023-05-05T22:02:08.342Z,60.38
2023-05-05T22:04:35.794Z,58.28
2023-05-05T22:07:02.470Z,58.16
2023-05-05T22:09:29.274Z,59.90
2023-05-05T22:11:57.405Z,60.85
2023-05-05T22:14:23.970Z,63.44
2023-05-05T22:16:51.140Z,64.06
2023-05-05T22:19:18.175Z,62.29
2023-05-05T22:21:44.951Z,60.45
2023-05-05T22:24:11.614Z,58.31
2023-05-05T22:26:43.242Z,57.90
2023-05-05T22:29:11.559Z,59.18
2023-05-05T22:31:38.802Z,60.53
2023-05-05T22:34:05.554Z,63.69
2023-05-05T22:36:32.329Z,64.14
2023-05-05T22:38:59.200Z,62.10
2023-05-05T22:41:26.297Z,60.63
2023-05-05T22:43:53.201Z,58.57
2023-05-05T22:46:19.845Z,58.18
2023-05-05T22:48:46.804Z,59.84
2023-05-05T22:51:13.472Z,61.69
2023-05-05T22:53:40.351Z,64.86
2023-05-05T22:56:07.327Z,64.45
2023-05-05T22:58:34.098Z,62.87
2023-05-05T23:01:00.944Z,61.21
2023-05-05T23:03:27.656Z,60.03
2023-05-05T23:05:54.473Z,58.36
2023-05-05T23:08:21.874Z,58.86
2023-05-05T23:10:48.523Z,60.61
2023-05-05T23:13:15.221Z,64.06
2023-05-05T23:15:41.788Z,64.44
2023-05-05T23:18:08.635Z,63.08
2023-05-05T23:20:40.361Z,61.69
2023-05-05T23:23:06.988Z,60.75
2023-05-05T23:25:33.864Z,60.02
2023-05-05T23:28:00.577Z,58.74
2023-05-05T23:30:27.249Z,59.41
2023-05-05T23:32:54.825Z,61.77
2023-05-05T23:35:21.653Z,64.47
2023-05-05T23:37:49.159Z,64.13
2023-05-05T23:40:15.731Z,62.04
2023-05-05T23:42:42.283Z,60.85
2023-05-05T23:45:09.701Z,59.80
2023-05-05T23:47:36.727Z,58.17
2023-05-05T23:50:03.626Z,58.76
2023-05-05T23:52:30.212Z,60.09
2023-05-05T23:54:56.690Z,61.42
2023-05-05T23:57:23.395Z,63.34
2023-05-05T23:59:49.904Z,62.56
